Terminal Aerodrome Forecast
Issued by NWS

Home | Current Version | Previous Version | Text Only | Print | Product List | Glossary On
Versions: 1 2 3 4 5 6 7 8 9 10 11 12 13 14 15 16 17 18 19 20 21
000
FTUS43 KMQT 021929 AAB
TAFCMX
TAF AMD
KCMX 021929Z 0219/0318 VRB03KT 6SM -SHRA OVC040
      TEMPO 0220/0222 BKN005
     FM022200 10006KT 5SM BR BKN040
     FM030100 10007KT P6SM SCT025 BKN040
     FM030500 11005KT 3SM BR SCT025
     FM030900 09004KT 2SM BR SCT006
     FM031500 11005KT P6SM FEW060=

USA.gov is the U.S. government's official web portal to all federal, state and local government web resources and services.